Time;durP1;ratioP1;P1;durP2;ratioP2;P2;SDS_P1;SDS_P2;PMS_P1;PMS_P2;Temp;Humidity;BMP_temperature;BMP_pressure;BME280_temperature;BME280_humidity;BME280_pressure;Samples;Min_cycle;Max_cycle;Signal;HPM_P1;HPM_P2
2022/06/28 00:02:00;;;;;;;;;1.33;1.33;;;;;19.30;59.67;101357.69;6286242;22;45324;-80
2022/06/28 00:07:47;;;;;;;;;5.00;4.00;;;;;19.26;59.90;101348.75;6308730;22;45385;-80
2022/06/28 00:10:14;;;;;;;;;2.00;2.00;;;;;19.27;59.39;101345.16;6316378;22;45999;-80
2022/06/28 00:12:41;;;;;;;;;1.00;1.00;;;;;19.27;59.96;101347.84;6317089;22;45357;-79
2022/06/28 00:17:58;;;;;;;;;4.00;2.67;;;;;19.25;59.94;101330.78;6291129;22;45358;-79
2022/06/28 00:20:23;;;;;;;;;1.67;1.67;;;;;19.25;60.23;101337.97;6315115;22;45941;-79
2022/06/28 00:22:49;;;;;;;;;2.67;2.67;;;;;19.23;59.85;101338.00;6314185;22;45562;-79
2022/06/28 00:25:15;;;;;;;;;4.67;3.67;;;;;19.18;61.21;101334.47;6287028;22;45426;-81
2022/06/28 00:27:41;;;;;;;;;2.67;2.67;;;;;19.16;60.31;101334.47;6316050;22;44830;-80
2022/06/28 00:30:08;;;;;;;;;3.33;3.00;;;;;19.11;60.30;101341.75;6314970;22;45293;-80
2022/06/28 00:32:34;;;;;;;;;3.00;3.00;;;;;19.06;60.34;101334.59;6287098;22;45300;-80
2022/06/28 00:35:00;;;;;;;;;3.00;3.00;;;;;19.03;60.40;101331.94;6313455;22;45444;-79
2022/06/28 00:37:26;;;;;;;;;2.67;2.67;;;;;19.05;60.36;101335.53;6286576;22;45550;-80
2022/06/28 00:39:52;;;;;;;;;3.00;3.00;;;;;19.05;60.04;101332.84;6288379;22;47093;-80
2022/06/28 00:42:17;;;;;;;;;5.33;4.00;;;;;19.04;60.18;101340.00;6316500;22;44818;-80
2022/06/28 00:44:43;;;;;;;;;3.00;3.00;;;;;19.02;60.28;101339.13;6314595;22;45371;-79
2022/06/28 00:47:09;;;;;;;;;3.00;3.00;;;;;18.96;59.97;101340.09;6315637;22;45454;-80
2022/06/28 00:49:38;;;;;;;;;4.00;4.00;;;;;18.87;60.68;101326.72;6285389;22;46027;-80
2022/06/28 00:52:04;;;;;;;;;2.33;2.33;;;;;18.85;61.43;101330.38;6285243;22;44865;-80
2022/06/28 00:54:38;;;;;;;;;3.00;3.00;;;;;18.84;60.42;101331.25;6315463;22;45394;-81
2022/06/28 00:57:05;;;;;;;;;3.00;3.00;;;;;18.80;61.75;101327.69;6314975;22;45076;-80
2022/06/28 00:59:30;;;;;;;;;3.67;2.67;;;;;18.69;61.21;101321.50;6315794;22;45115;-81
2022/06/28 01:01:57;;;;;;;;;3.33;3.33;;;;;18.73;61.73;101334.94;6286660;22;45392;-80
2022/06/28 01:04:22;;;;;;;;;3.00;3.00;;;;;18.74;61.41;101331.34;6315512;22;45302;-80
2022/06/28 01:07:32;;;;;;;;;4.00;4.00;;;;;18.74;61.77;101325.03;6303862;22;45531;-82
2022/06/28 01:09:58;;;;;;;;;3.00;3.00;;;;;18.70;61.74;101328.66;6279698;22;45340;-81
2022/06/28 01:12:23;;;;;;;;;5.67;5.67;;;;;18.70;61.44;101325.97;6257449;22;45346;-81
2022/06/28 01:14:49;;;;;;;;;6.00;6.00;;;;;18.68;61.69;101331.38;6287065;22;45081;-80
2022/06/28 01:17:14;;;;;;;;;4.00;4.00;;;;;18.66;62.48;101324.22;6259748;22;45533;-80
2022/06/28 01:23:05;;;;;;;;;3.67;3.67;;;;;18.55;62.71;101321.63;6282353;22;45290;-81
2022/06/28 01:25:31;;;;;;;;;6.33;3.00;;;;;18.51;63.03;101322.56;6285609;22;45357;-80
2022/06/28 01:27:57;;;;;;;;;5.00;3.00;;;;;18.53;62.77;101324.34;6256478;22;45315;-81
2022/06/28 01:30:23;;;;;;;;;3.00;3.00;;;;;18.55;63.52;101327.91;6286414;22;45732;-81
2022/06/28 01:32:50;;;;;;;;;4.00;4.00;;;;;18.54;64.00;101326.16;6286569;22;44972;-81
2022/06/28 01:35:16;;;;;;;;;5.00;5.00;;;;;18.47;63.77;101324.41;6286150;22;44750;-81
2022/06/28 01:37:41;;;;;;;;;4.00;4.00;;;;;18.40;63.28;101322.69;6285815;22;45298;-80
2022/06/28 01:40:09;;;;;;;;;3.00;3.00;;;;;18.44;63.74;101332.53;6256447;22;47252;-80
2022/06/28 01:42:35;;;;;;;;;5.67;3.00;;;;;18.39;63.76;101331.66;6285516;22;45120;-81
2022/06/28 01:45:01;;;;;;;;;3.00;3.00;;;;;18.39;63.46;101332.53;6256443;22;45496;-82
2022/06/28 01:47:29;;;;;;;;;2.33;2.33;;;;;18.37;63.36;101331.66;6255689;22;45389;-80
2022/06/28 01:49:55;;;;;;;;;2.67;2.67;;;;;18.35;63.52;101328.09;6281850;22;45401;-79
2022/06/28 01:52:21;;;;;;;;;4.00;2.33;;;;;18.32;64.01;101324.53;6282377;22;45282;-79
2022/06/28 01:54:47;;;;;;;;;4.67;4.00;;;;;18.30;64.40;101327.25;6285002;22;44741;-81
2022/06/28 01:57:14;;;;;;;;;3.00;3.00;;;;;18.33;64.59;101326.31;6286078;22;45422;-80
2022/06/28 01:59:46;;;;;;;;;4.00;2.67;;;;;18.32;64.69;101327.22;6258742;22;46169;-80
2022/06/28 02:02:11;;;;;;;;;3.00;3.00;;;;;18.29;64.08;101321.88;6258530;22;45357;-80
2022/06/28 02:04:37;;;;;;;;;3.00;3.00;;;;;18.23;64.74;101314.72;6258088;22;44680;-80
2022/06/28 02:07:03;;;;;;;;;1.67;1.67;;;;;18.22;64.60;101322.81;6256341;22;45294;-80
2022/06/28 02:09:31;;;;;;;;;3.00;3.00;;;;;18.22;65.87;101314.75;6257046;22;47501;-80
2022/06/28 02:12:00;;;;;;;;;2.00;2.00;;;;;18.08;64.66;101299.63;6282486;22;45477;-80
2022/06/28 02:14:26;;;;;;;;;2.33;2.33;;;;;18.06;65.46;101300.53;6284213;22;45310;-80
2022/06/28 02:16:51;;;;;;;;;5.00;5.00;;;;;18.04;65.71;101310.38;6284168;22;45085;-80
2022/06/28 02:19:16;;;;;;;;;4.33;3.33;;;;;18.04;65.41;101323.84;6255688;22;46800;-80
2022/06/28 02:21:44;;;;;;;;;3.67;3.00;;;;;18.02;65.51;101315.81;6284956;22;44641;-80
2022/06/28 02:24:10;;;;;;;;;2.00;2.00;;;;;18.04;65.46;101319.38;6284234;22;45329;-79
2022/06/28 02:26:36;;;;;;;;;3.00;3.00;;;;;18.03;65.50;101311.31;6283622;22;45701;-79
2022/06/28 02:29:05;;;;;;;;;3.00;3.00;;;;;18.03;65.76;101317.59;6283215;22;45484;-79
2022/06/28 02:31:30;;;;;;;;;3.00;3.00;;;;;17.99;65.99;101305.06;6282733;22;45662;-79
2022/06/28 02:33:57;;;;;;;;;2.00;2.00;;;;;17.91;66.53;101301.53;6283304;22;45326;-80
2022/06/28 02:41:56;;;;;;;;;3.00;3.00;;;;;17.84;66.95;101318.63;6282960;22;45363;-80
2022/06/28 02:44:21;;;;;;;;;1.00;1.00;;;;;17.83;67.25;101324.88;6255013;22;45451;-80
2022/06/28 02:46:47;;;;;;;;;3.00;3.00;;;;;17.80;66.97;101310.53;6285208;22;45393;-80
2022/06/28 02:49:14;;;;;;;;;3.67;3.33;;;;;17.75;67.91;101316.84;6286412;22;45429;-80
2022/06/28 02:51:44;;;;;;;;;3.00;3.00;;;;;17.68;67.06;101316.00;6259786;22;45377;-80
2022/06/28 02:54:10;;;;;;;;;2.00;2.00;;;;;17.67;67.80;101307.94;6284526;22;44751;-80
2022/06/28 02:56:37;;;;;;;;;1.00;1.00;;;;;17.72;67.74;101322.25;6288328;22;45423;-80
2022/06/28 02:59:03;;;;;;;;;2.00;2.00;;;;;17.71;67.93;101313.28;6287206;22;45353;-79
2022/06/28 03:01:28;;;;;;;;;1.67;1.67;;;;;17.72;67.65;101325.84;6286341;22;45405;-80
2022/06/28 03:03:55;;;;;;;;;4.00;4.00;;;;;17.69;67.66;101315.06;6286634;22;45725;-80
2022/06/28 03:06:21;;;;;;;;;2.67;2.67;;;;;17.72;67.85;101320.47;6285029;22;45332;-80
2022/06/28 03:08:46;;;;;;;;;2.00;2.00;;;;;17.66;67.71;101312.44;6297530;22;46453;-80
2022/06/28 03:11:12;;;;;;;;;4.00;3.00;;;;;17.68;68.07;101309.72;6317655;22;45378;-80
2022/06/28 03:13:37;;;;;;;;;4.00;2.00;;;;;17.69;68.06;101311.50;6290259;22;45314;-80
2022/06/28 03:16:04;;;;;;;;;2.00;2.00;;;;;17.66;67.75;101317.81;6291444;22;45873;-80
2022/06/28 03:18:29;;;;;;;;;2.00;2.00;;;;;17.64;67.82;101316.03;6290351;22;47958;-81
2022/06/28 03:20:55;;;;;;;;;3.33;3.33;;;;;17.66;67.50;101317.81;6289784;22;45046;-81
2022/06/28 03:23:20;;;;;;;;;2.33;2.33;;;;;17.64;68.10;101324.09;6290176;22;44742;-79
2022/06/28 03:25:46;;;;;;;;;2.00;2.00;;;;;17.62;68.48;101321.41;6289927;22;44964;-79
2022/06/28 03:28:13;;;;;;;;;4.00;2.00;;;;;17.57;68.41;101313.38;6291256;22;46949;-79
2022/06/28 03:30:38;;;;;;;;;3.33;3.33;;;;;17.55;68.54;101311.59;6290118;22;44784;-80
2022/06/28 03:33:04;;;;;;;;;3.00;3.00;;;;;17.55;68.59;101319.66;6321485;22;45735;-81
2022/06/28 03:35:29;;;;;;;;;4.67;4.00;;;;;17.56;68.96;101321.44;6321388;22;45342;-81
2022/06/28 03:37:55;;;;;;;;;2.00;2.00;;;;;17.51;68.88;101310.72;6292792;22;45286;-80
2022/06/28 03:40:20;;;;;;;;;1.00;1.00;;;;;17.51;69.47;101320.56;6322274;22;44762;-80
2022/06/28 03:42:45;;;;;;;;;2.00;2.00;;;;;17.51;69.17;101323.25;6292072;22;45324;-80
2022/06/28 03:45:11;;;;;;;;;4.00;4.00;;;;;17.48;69.17;101325.97;6320863;22;45257;-80
2022/06/28 03:47:36;;;;;;;;;4.00;3.67;;;;;17.44;70.01;101324.22;6319385;22;45276;-80
2022/06/28 03:50:05;;;;;;;;;2.00;2.00;;;;;17.39;70.50;101324.22;6317397;22;45234;-80
2022/06/28 03:52:32;;;;;;;;;3.00;3.00;;;;;17.36;69.36;101318.88;6317169;22;45474;-80
2022/06/28 03:54:59;;;;;;;;;2.00;2.00;;;;;17.42;69.81;101339.47;6289728;22;45425;-79
2022/06/28 03:57:26;;;;;;;;;2.00;2.00;;;;;17.40;69.88;101337.66;6315251;22;45032;-80
2022/06/28 03:59:51;;;;;;;;;3.00;3.00;;;;;17.38;69.87;101328.69;6316084;22;44801;-80
2022/06/28 04:02:18;;;;;;;;;4.00;3.00;;;;;17.37;69.63;101315.25;6312509;22;45361;-79
2022/06/28 04:04:45;;;;;;;;;4.33;3.00;;;;;17.38;69.83;101320.63;6316074;22;45734;-80
2022/06/28 04:07:10;;;;;;;;;3.00;3.00;;;;;17.42;70.43;101328.69;6288772;22;46942;-79
2022/06/28 04:09:42;;;;;;;;;2.67;2.67;;;;;17.42;70.22;101329.59;6242863;22;45126;-79
2022/06/28 04:12:08;;;;;;;;;5.00;5.00;;;;;17.42;70.73;101323.31;6284237;22;45389;-79
2022/06/28 04:14:33;;;;;;;;;4.00;3.00;;;;;17.48;70.40;101336.75;6258094;22;45350;-79
2022/06/28 04:17:00;;;;;;;;;2.00;2.00;;;;;17.46;70.25;101325.97;6285972;22;45377;-80
2022/06/28 04:19:25;;;;;;;;;3.33;3.33;;;;;17.46;70.53;101325.97;6257017;22;44831;-80
2022/06/28 04:21:54;;;;;;;;;4.33;2.33;;;;;17.48;70.85;101328.66;6286596;22;45588;-81
2022/06/28 04:24:19;;;;;;;;;2.00;2.00;;;;;17.47;70.61;101319.72;6286382;22;45743;-81
2022/06/28 04:26:48;;;;;;;;;3.67;3.67;;;;;17.50;70.64;101319.69;6256631;22;47081;-80
2022/06/28 04:29:14;;;;;;;;;4.00;4.00;;;;;17.59;70.53;101335.78;6284358;22;45356;-80
2022/06/28 04:31:43;;;;;;;;;5.00;3.00;;;;;17.65;70.73;101320.50;6258530;22;44758;-80
2022/06/28 04:34:08;;;;;;;;;3.00;3.00;;;;;17.83;70.40;101341.94;6257827;22;44868;-80
2022/06/28 04:36:41;;;;;;;;;3.00;2.67;;;;;17.94;70.33;101336.50;6286598;22;45818;-80
2022/06/28 04:39:06;;;;;;;;;2.00;2.00;;;;;18.01;69.47;101334.66;6286975;22;45364;-80
2022/06/28 04:41:33;;;;;;;;;4.00;4.00;;;;;18.09;69.68;101333.69;6284954;22;45426;-80
2022/06/28 04:43:58;;;;;;;;;5.33;4.33;;;;;18.16;69.02;101321.09;6286673;22;45285;-80
2022/06/28 04:46:26;;;;;;;;;3.00;2.00;;;;;18.29;69.01;101336.22;6285197;22;45393;-80
2022/06/28 04:48:52;;;;;;;;;3.00;3.00;;;;;18.34;68.41;101330.78;6257949;22;45321;-80
2022/06/28 04:51:17;;;;;;;;;3.00;3.00;;;;;18.38;68.16;101335.28;6288102;22;45050;-80
2022/06/28 04:53:45;;;;;;;;;3.67;3.67;;;;;18.50;68.05;101334.25;6259470;22;45583;-80
2022/06/28 04:56:11;;;;;;;;;4.00;4.00;;;;;18.57;67.93;101330.59;6259321;22;47004;-80
2022/06/28 04:58:37;;;;;;;;;4.67;4.00;;;;;18.75;67.27;101337.59;6288078;22;45310;-80
2022/06/28 05:01:05;;;;;;;;;4.00;4.00;;;;;18.87;67.23;101340.22;6260460;22;44890;-79
2022/06/28 05:03:32;;;;;;;;;3.00;3.00;;;;;19.00;66.50;101335.56;6259555;22;44880;-80
2022/06/28 05:05:58;;;;;;;;;6.00;3.67;;;;;19.08;66.04;101332.78;6261245;22;46263;-80
2022/06/28 05:08:23;;;;;;;;;5.67;5.00;;;;;19.11;66.28;101333.66;6287132;22;45385;-80
2022/06/28 05:10:49;;;;;;;;;3.00;3.00;;;;;19.20;65.96;101338.03;6317003;22;45347;-80
2022/06/28 05:13:14;;;;;;;;;3.33;3.33;;;;;19.26;65.84;101337.97;6319035;22;44831;-81
2022/06/28 05:15:40;;;;;;;;;4.67;4.67;;;;;19.28;65.73;101336.13;6317913;22;48029;-81
2022/06/28 05:18:05;;;;;;;;;3.33;3.33;;;;;19.38;65.31;101337.78;6289373;22;44804;-80
2022/06/28 05:20:34;;;;;;;;;6.00;5.00;;;;;19.46;64.60;101331.44;6313987;22;44964;-79
2022/06/28 05:22:59;;;;;;;;;6.00;5.00;;;;;19.63;64.48;101340.16;6315673;22;45493;-79
2022/06/28 05:25:26;;;;;;;;;5.33;4.67;;;;;19.79;63.93;101343.56;6317876;22;45306;-80
2022/06/28 05:27:53;;;;;;;;;4.00;4.00;;;;;19.95;63.26;101345.13;6290945;22;45302;-80
2022/06/28 05:30:19;;;;;;;;;5.00;4.00;;;;;19.93;62.67;101337.97;6290156;22;44800;-80
2022/06/28 05:32:47;;;;;;;;;5.00;2.67;;;;;19.89;62.22;101333.53;6313748;22;45404;-80
2022/06/28 05:35:16;;;;;;;;;3.00;3.00;;;;;19.95;61.08;101341.53;6287385;22;47718;-80
2022/06/28 05:37:41;;;;;;;;;2.00;2.00;;;;;20.10;61.72;101349.41;6311581;22;45271;-80
2022/06/28 05:40:07;;;;;;;;;2.00;2.00;;;;;20.25;60.58;101332.06;6316001;22;45210;-80
2022/06/28 05:42:32;;;;;;;;;2.00;2.00;;;;;20.50;59.99;101331.63;6290368;22;45327;-81
2022/06/28 05:44:58;;;;;;;;;2.67;2.00;;;;;20.68;59.28;101341.25;6316750;22;46135;-80
2022/06/28 05:47:24;;;;;;;;;1.33;1.33;;;;;20.79;58.36;101323.03;6289069;22;45274;-80
2022/06/28 05:50:33;;;;;;;;;3.00;3.00;;;;;20.92;58.07;101326.41;6316551;22;45179;-80
2022/06/28 05:52:58;;;;;;;;;2.00;2.00;;;;;20.88;57.98;101322.84;6317341;22;44856;-81
2022/06/28 05:55:24;;;;;;;;;3.33;3.33;;;;;20.98;57.72;101332.56;6289719;22;48087;-80
2022/06/28 05:57:51;;;;;;;;;5.67;5.67;;;;;21.03;57.75;101326.22;6316392;22;45391;-80
2022/06/28 06:00:17;;;;;;;;;3.00;3.00;;;;;21.12;56.84;101326.00;6287196;22;45288;-80
2022/06/28 06:02:43;;;;;;;;;4.33;3.00;;;;;21.15;56.12;101320.53;6263905;22;45394;-80
2022/06/28 06:05:09;;;;;;;;;3.00;3.00;;;;;21.16;55.31;101322.31;6316672;22;45127;-80
2022/06/28 06:07:34;;;;;;;;;2.33;2.00;;;;;21.19;55.26;101324.97;6288258;22;45388;-80
2022/06/28 06:10:00;;;;;;;;;2.00;2.00;;;;;21.12;54.88;101315.19;6270346;22;45336;-80
2022/06/28 06:12:28;;;;;;;;;1.33;1.33;;;;;21.19;54.86;101324.97;6276723;22;45585;-81
2022/06/28 06:14:58;;;;;;;;;2.00;2.00;;;;;21.19;54.05;101327.69;6286213;22;46808;-81
2022/06/28 06:17:25;;;;;;;;;3.00;3.00;;;;;21.11;53.79;101321.53;6288436;22;44723;-81
2022/06/28 06:19:50;;;;;;;;;3.33;3.33;;;;;21.03;53.09;101316.28;6259399;22;45382;-80
2022/06/28 06:22:16;;;;;;;;;2.67;2.67;;;;;21.02;53.57;101313.59;6271349;22;45390;-81
2022/06/28 06:24:41;;;;;;;;;2.00;2.00;;;;;21.00;53.34;101313.63;6285177;22;44940;-80
2022/06/28 06:27:07;;;;;;;;;3.00;3.00;;;;;20.98;53.56;101305.53;6283778;22;45469;-80
2022/06/28 06:29:33;;;;;;;;;3.00;3.00;;;;;21.12;53.94;101307.94;6285468;22;44867;-81
2022/06/28 06:31:58;;;;;;;;;3.00;2.67;;;;;21.05;52.26;101284.69;6286244;22;45363;-81
2022/06/28 06:34:24;;;;;;;;;4.67;4.67;;;;;21.28;53.18;101316.63;6285716;22;45435;-80
2022/06/28 06:36:50;;;;;;;;;2.33;2.33;;;;;21.47;52.95;101313.56;6259982;22;45345;-80
2022/06/28 06:39:19;;;;;;;;;3.00;3.00;;;;;21.47;51.84;101316.28;6285849;22;45283;-80
2022/06/28 06:41:48;;;;;;;;;4.00;2.67;;;;;21.33;51.09;101290.41;6258460;22;45330;-81
2022/06/28 06:44:25;;;;;;;;;3.67;3.67;;;;;21.28;51.67;101288.72;6283834;22;47607;-80
2022/06/28 06:46:54;;;;;;;;;3.33;3.33;;;;;21.27;51.92;101287.81;6285698;22;45471;-80
2022/06/28 06:49:22;;;;;;;;;3.00;3.00;;;;;21.36;51.37;101308.38;6234226;22;45128;-80
2022/06/28 06:51:48;;;;;;;;;4.00;4.00;;;;;21.24;50.50;101285.16;6284160;22;45307;-80
2022/06/28 06:54:15;;;;;;;;;19.00;14.33;;;;;21.40;50.31;101312.78;6283442;22;45350;-81
2022/06/28 06:56:46;;;;;;;;;13.00;9.33;;;;;21.40;50.35;101299.25;6284245;22;45408;-81
2022/06/28 06:59:18;;;;;;;;;15.33;13.00;;;;;21.52;51.32;101306.25;6285112;22;45475;-82
2022/06/28 07:01:44;;;;;;;;;11.33;9.67;;;;;21.65;50.10;101307.75;6259492;22;44738;-81
2022/06/28 07:04:22;;;;;;;;;6.67;5.00;;;;;21.59;49.83;101283.53;6288853;22;45009;-80
2022/06/28 07:08:02;;;;;;;;;4.00;4.00;;;;;21.65;49.99;101277.97;6254890;22;45817;-81
2022/06/28 07:18:57;;;;;;;;;7.33;6.00;;;;;21.98;49.44;101280.81;6123999;23;45426;-84
2022/06/28 07:21:27;;;;;;;;;4.33;4.33;;;;;21.91;48.98;101242.13;6132933;23;45184;-83
2022/06/28 07:23:53;;;;;;;;;6.00;6.00;;;;;22.10;48.47;101264.25;6132849;23;44972;-83
2022/06/28 07:26:29;;;;;;;;;3.00;3.00;;;;;22.24;48.34;101271.16;6132105;23;45749;-83
2022/06/28 07:29:04;;;;;;;;;7.00;6.00;;;;;22.31;48.33;101253.81;6127552;23;47021;-82
2022/06/28 07:31:48;;;;;;;;;6.33;6.00;;;;;22.36;47.87;101251.88;6109545;23;45452;-82
2022/06/28 07:34:31;;;;;;;;;6.00;5.00;;;;;22.34;47.94;101226.66;6104162;23;45483;-83
2022/06/28 07:37:47;;;;;;;;;6.00;5.67;;;;;22.66;47.29;101257.38;6109819;23;44799;-83
2022/06/28 07:40:19;;;;;;;;;5.00;4.00;;;;;22.49;47.76;101220.78;6166339;22;45453;-79
2022/06/28 07:42:55;;;;;;;;;5.00;3.33;;;;;22.61;47.60;101221.38;6171131;23;45293;-83
2022/06/28 07:45:25;;;;;;;;;4.33;4.33;;;;;22.76;46.73;101215.50;6197631;22;44869;-84
2022/06/28 07:48:26;;;;;;;;;3.00;3.00;;;;;22.79;46.71;101215.44;6177098;22;45544;-83
2022/06/28 07:58:19;;;;;;;;;8.67;8.67;;;;;23.05;45.62;101240.94;6291578;22;45420;-83
2022/06/28 08:01:07;;;;;;;;;4.00;4.00;;;;;22.77;45.43;101199.19;6265920;22;45270;-84
2022/06/28 08:04:03;;;;;;;;;5.00;3.67;;;;;23.01;45.30;101236.50;6262884;22;46875;-83
2022/06/28 08:06:45;;;;;;;;;6.00;3.00;;;;;22.75;45.49;101189.34;6289252;22;45464;-83
2022/06/28 08:13:31;;;;;;;;;6.33;5.67;;;;;23.07;45.61;101198.38;6323809;22;44815;-84
2022/06/28 09:20:17;;;;;;;;;3.00;3.00;;;;;24.23;40.45;101116.66;6227906;22;45338;-82
2022/06/28 09:22:50;;;;;;;;;6.00;6.00;;;;;24.46;36.71;101152.03;6227406;22;44928;-82
2022/06/28 09:25:59;;;;;;;;;5.00;4.00;;;;;24.47;38.85;101148.38;6197602;22;45347;-82
2022/06/28 09:58:43;;;;;;;;;1.75;1.25;;;;;24.98;37.04;101110.19;6321139;22;45463;-82
2022/06/28 10:01:55;;;;;;;;;2.00;2.00;;;;;25.09;36.57;101102.50;6319867;22;45284;-81
2022/06/28 10:04:40;;;;;;;;;2.00;2.00;;;;;25.06;35.49;101080.84;6316511;22;44834;-83
2022/06/28 10:07:12;;;;;;;;;2.00;0.67;;;;;25.24;35.54;101104.59;6317373;22;45475;-82
2022/06/28 10:16:47;;;;;;;;;1.50;1.25;;;;;25.38;35.75;101084.09;6316349;22;44843;-83
2022/06/28 10:20:05;;;;;;;;;;;;;;;;;;;;;
2022/06/28 10:22:32;;;;;;;;;2.67;2.67;;;;;25.34;35.43;101067.00;6163066;22;71525;-83
2022/06/28 10:25:30;;;;;;;;;17.33;15.67;;;;;25.30;35.86;101039.00;6166060;23;45497;-82
2022/06/28 10:28:48;;;;;;;;;9.67;8.00;;;;;25.43;35.15;101047.56;6076098;23;45317;-83
2022/06/28 10:31:27;;;;;;;;;14.33;13.00;;;;;25.74;34.65;101082.50;5908313;24;45605;-82
2022/06/28 10:43:42;;;;;;;;;2.67;2.67;;;;;25.46;36.15;101062.88;5931070;24;45612;-85
2022/06/28 10:59:53;;;;;;;;;1.67;1.67;;;;;25.42;34.93;100998.59;5856262;24;45460;-85
2022/06/28 11:13:25;;;;;;;;;3.00;3.00;;;;;25.72;34.58;101020.88;6319730;22;45526;-84
2022/06/28 11:16:22;;;;;;;;;3.00;3.00;;;;;25.78;35.00;101022.44;6270615;22;44819;-83
2022/06/28 11:19:37;;;;;;;;;1.33;1.33;;;;;25.84;34.22;101020.31;6300915;22;46650;-85
2022/06/28 11:28:59;;;;;;;;;2.00;2.00;;;;;26.06;34.87;101036.63;6258801;22;45191;-83
2022/06/28 11:41:51;;;;;;;;;3.33;3.33;;;;;25.88;34.62;101021.94;6258539;22;45479;-84
2022/06/28 11:45:02;;;;;;;;;3.00;3.00;;;;;25.81;34.28;100995.06;6261712;22;46374;-84
2022/06/28 11:47:49;;;;;;;;;2.67;2.67;;;;;26.08;34.14;101023.81;6115114;23;45396;-84
2022/06/28 11:50:50;;;;;;;;;2.00;2.00;;;;;26.12;33.68;101019.97;6137051;23;45325;-84
2022/06/28 11:56:39;;;;;;;;;3.00;2.00;;;;;26.19;34.30;101001.47;6078534;23;45292;-84
2022/06/28 11:59:15;;;;;;;;;3.00;3.00;;;;;25.99;33.51;100966.97;6051994;23;45355;-83
2022/06/28 12:01:44;;;;;;;;;1.00;1.00;;;;;26.04;33.86;100994.91;6098288;23;44972;-84
2022/06/28 12:22:25;;;;;;;;;3.00;3.00;;;;;26.60;32.99;100986.84;6291539;22;44909;-85
2022/06/28 12:25:08;;;;;;;;;0.33;0.33;;;;;26.60;32.70;100975.94;6292680;22;44766;-86
2022/06/28 12:27:47;;;;;;;;;;;;;;;;;;;;;
2022/06/28 12:30:16;;;;;;;;;0.33;0.33;;;;;26.34;32.16;100962.59;6293974;22;74576;-87
2022/06/28 12:43:11;;;;;;;;;2.67;2.67;;;;;26.20;33.26;100947.84;6205358;22;45403;-84
2022/06/28 12:48:58;;;;;;;;;1.67;1.67;;;;;26.31;33.29;100918.22;6202966;22;44777;-84
2022/06/28 12:54:41;;;;;;;;;3.25;2.00;;;;;26.73;32.86;100955.28;6226927;22;46188;-84
2022/06/28 12:57:11;;;;;;;;;1.00;1.00;;;;;26.67;32.05;100926.47;6199389;22;45170;-84
2022/06/28 13:02:54;;;;;;;;;1.67;1.67;;;;;26.88;32.28;100924.47;6224313;22;45415;-84
2022/06/28 13:05:25;;;;;;;;;1.67;1.67;;;;;26.89;32.31;100912.63;6226838;22;46574;-85
2022/06/28 13:07:58;;;;;;;;;2.00;1.33;;;;;26.99;31.59;100917.59;6201549;22;45339;-88
2022/06/28 13:10:27;;;;;;;;;2.33;2.33;;;;;26.94;31.89;100915.09;6229496;22;45361;-86
2022/06/28 13:12:53;;;;;;;;;2.00;2.00;;;;;27.27;31.09;100948.00;6228411;22;44776;-86
2022/06/28 13:15:21;;;;;;;;;2.00;2.00;;;;;27.32;31.00;100940.44;6227945;22;45850;-86
2022/06/28 13:17:47;;;;;;;;;0.67;0.67;;;;;27.37;30.94;100929.28;6202390;22;45253;-85
2022/06/28 13:20:24;;;;;;;;;2.00;2.00;;;;;27.18;30.07;100877.44;6226770;22;45590;-82
2022/06/28 13:23:14;;;;;;;;;2.00;2.00;;;;;27.51;30.65;100914.84;6204534;22;45449;-85
2022/06/28 13:26:03;;;;;;;;;2.33;2.33;;;;;27.61;30.05;100907.06;6226727;22;46777;-86
2022/06/28 13:28:54;;;;;;;;;;;;;;;;;;;;;
2022/06/28 13:31:28;;;;;;;;;1.50;1.50;;;;;27.48;29.82;100894.06;6248144;22;68471;-85
2022/06/28 13:34:18;;;;;;;;;1.25;1.25;;;;;27.42;29.40;100893.53;6234197;22;45277;-85
2022/06/28 13:49:17;;;;;;;;;1.67;1.67;;;;;29.79;28.63;100871.44;6194183;23;45277;-81
2022/06/28 13:51:43;;;;;;;;;1.67;1.67;;;;;31.81;25.82;100867.69;6195764;23;45405;-83
2022/06/28 13:54:12;;;;;;;;;1.00;1.00;;;;;33.52;25.59;100871.22;6196389;23;45372;-83
2022/06/28 13:57:09;;;;;;;;;1.00;1.00;;;;;35.39;23.73;100871.19;6196867;23;45402;-82
2022/06/28 13:59:46;;;;;;;;;0.67;0.67;;;;;36.57;22.59;100856.75;6187258;22;45240;-83
2022/06/28 14:02:44;;;;;;;;;0.33;0.33;;;;;37.91;19.73;100868.84;6224734;22;45582;-82
2022/06/28 14:05:25;;;;;;;;;1.00;1.00;;;;;38.59;20.25;100856.50;6227437;22;45380;-85
2022/06/28 14:08:05;;;;;;;;;1.33;1.00;;;;;39.12;19.02;100847.25;6226988;22;44873;-84
2022/06/28 14:10:33;;;;;;;;;2.00;2.00;;;;;39.62;19.73;100842.94;6227052;22;45060;-84
2022/06/28 14:13:10;;;;;;;;;2.00;2.00;;;;;40.62;18.52;100837.56;6202598;22;45023;-85
2022/06/28 14:15:47;;;;;;;;;1.67;1.67;;;;;41.12;18.23;100858.00;6226797;22;45314;-84
2022/06/28 14:25:33;;;;;;;;;1.00;1.00;;;;;41.27;17.98;100849.81;6228913;22;45276;-84
2022/06/28 14:31:45;;;;;;;;;2.00;2.00;;;;;43.50;16.68;100843.66;6231202;22;45594;-82
2022/06/28 14:34:38;;;;;;;;;0.00;0.00;;;;;44.39;15.55;100853.06;6206155;22;45694;-85
2022/06/28 14:41:54;;;;;;;;;1.00;1.00;;;;;42.70;15.34;100853.47;6304734;22;44884;-85
2022/06/28 14:51:53;;;;;;;;;2.33;2.00;;;;;44.29;14.94;100826.22;6109516;23;44840;-84
2022/06/28 14:55:10;;;;;;;;;;;;;;;;;;;;;
2022/06/28 14:58:30;;;;;;;;;2.33;2.33;;;;;45.45;13.67;100771.81;6106716;23;65428;-85
2022/06/28 15:01:24;;;;;;;;;1.67;1.67;;;;;46.05;13.58;100809.53;6164911;22;46746;-86
2022/06/28 15:05:16;;;;;;;;;;;;;;;;;;;;;
2022/06/28 15:14:19;;;;;;;;;2.00;2.00;;;;;48.95;11.10;100790.75;6224202;22;44985;-83
2022/06/28 15:16:44;;;;;;;;;1.33;1.33;;;;;49.94;11.19;100810.59;6228036;22;44830;-85
2022/06/28 15:19:19;;;;;;;;;7.00;7.00;;;;;50.92;11.15;100817.88;6292251;22;45409;-84
2022/06/28 15:32:56;;;;;;;;;1.33;1.33;;;;;52.36;9.71;100798.44;6324100;22;45282;-85
2022/06/28 15:35:30;;;;;;;;;1.67;1.67;;;;;52.57;9.03;100796.88;6288469;22;45672;-84
2022/06/28 15:38:18;;;;;;;;;1.00;1.00;;;;;52.46;8.32;100781.56;6291019;22;44762;-84
2022/06/28 15:40:58;;;;;;;;;2.00;2.00;;;;;51.88;8.24;100785.56;6263225;22;45282;-84
2022/06/28 15:43:27;;;;;;;;;1.00;1.00;;;;;52.11;9.21;100793.09;6263775;22;45536;-84
2022/06/28 15:45:58;;;;;;;;;1.00;1.00;;;;;53.24;7.40;100778.97;6288635;22;45514;-84
2022/06/28 15:49:05;;;;;;;;;1.00;1.00;;;;;53.83;8.15;100772.69;6262540;22;44906;-84
2022/06/28 15:51:30;;;;;;;;;0.00;0.00;;;;;54.72;7.82;100773.34;6194759;23;45435;-84
2022/06/28 15:57:20;;;;;;;;;1.67;1.67;;;;;55.92;7.34;100775.53;6135822;23;45486;-84
2022/06/28 15:59:45;;;;;;;;;1.00;1.00;;;;;56.16;7.78;100788.44;6063250;23;45378;-85
2022/06/28 16:02:32;;;;;;;;;0.00;0.00;;;;;56.25;7.09;100786.75;6103640;23;45507;-84
2022/06/28 16:05:04;;;;;;;;;1.33;0.67;;;;;55.90;7.24;100774.97;6105116;23;45399;-84
2022/06/28 16:07:41;;;;;;;;;0.00;0.00;;;;;55.33;5.86;100747.28;6082015;23;45468;-83
2022/06/28 16:10:08;;;;;;;;;1.00;1.00;;;;;54.90;6.54;100764.38;6106218;23;45364;-84
2022/06/28 16:12:52;;;;;;;;;0.67;0.67;;;;;54.99;7.45;100758.16;6113714;23;44789;-85
2022/06/28 16:15:32;;;;;;;;;2.00;1.00;;;;;55.49;6.39;100739.69;6106838;23;45313;-85
2022/06/28 16:18:21;;;;;;;;;1.00;1.00;;;;;55.59;7.18;100747.41;6107885;23;45420;-84
2022/06/28 16:20:52;;;;;;;;;0.67;0.67;;;;;55.08;6.01;100747.97;6049498;23;45381;-84
2022/06/28 16:23:25;;;;;;;;;0.67;0.67;;;;;54.90;6.60;100744.44;6079592;23;44716;-85
2022/06/28 16:25:54;;;;;;;;;1.50;1.50;;;;;54.91;6.90;100746.16;6078237;23;44810;-84
2022/06/28 16:28:29;;;;;;;;;1.67;1.67;;;;;55.33;6.79;100733.91;6068220;23;46718;-83
2022/06/28 16:30:55;;;;;;;;;2.67;2.00;;;;;55.25;6.04;100731.59;6106458;23;44778;-84
2022/06/28 16:33:22;;;;;;;;;64.75;56.25;;;;;55.21;7.45;100733.28;6107201;23;45349;-84
2022/06/28 16:35:59;;;;;;;;;18.33;16.67;;;;;55.15;6.54;100714.44;6119675;23;45350;-83
2022/06/28 16:38:31;;;;;;;;;1.00;1.00;;;;;55.40;7.04;100730.78;6165347;23;45323;-84
2022/06/28 16:40:56;;;;;;;;;1.67;1.00;;;;;55.30;6.10;100734.44;6140485;23;44825;-84
2022/06/28 16:43:25;;;;;;;;;1.00;1.00;;;;;55.16;6.89;100736.09;6161191;23;44992;-84